• Join FlightAware (Why Join?)
  • Login
  • US Flag 
08:57AM EDT


 

Airport Tracker/Info


-or-


 

Live Flight TrackerFlight Track Log ✈ DAL1814 ✈ 22-Apr-2013 ✈ KLAX - KCVG

Flight Track Log - Related Links

Times and Time Zones

All times are in EDT time to prevent confusion due to time zone crossing. See the DAL1814 flight status page for this flight to view local times or setup timezone preferences in your user account.

Time Position Orientation Groundspeed Altitude Reporting Facility
EDT Latitude Longitude Course Direction KTS MPH feet Rate Location/Type
03:18PM 33.9344 -118.4342 54° Northeast 178 205 35,000  Level Los Angeles Center
03:19PM 33.9186 -118.5072 255° West 225 259 3,200 -14,040 Descending Los Angeles Center
03:20PM 33.8708 -118.5556 220° Southwest 252 290 6,100 2,460 Climbing Los Angeles Center
03:21PM 34.1474 -118.0386 59° Northeast  Level FlightAware Approximate
03:21PM 33.8308 -118.4933 128° Southeast 280 322 8,300  Level Los Angeles Center
03:22PM 34.2187 -117.8960 59° Northeast  Level FlightAware Approximate
03:22PM 33.8881 -118.4400 38° Northeast 279 321 10,800  Level Los Angeles Center
03:23PM 34.3001 -117.7721 54° Northeast  Level FlightAware Approximate
03:23PM 33.9647 -118.4014 23° Northeast 312 359 12,900  Level Los Angeles Center
03:24PM 34.0222 -118.2739 61° Northeast 365 420 14,800 1,920 Climbing Los Angeles Center
03:25PM 34.0869 -118.1669 54° Northeast 389 448 16,900 2,040 Climbing Los Angeles Center
03:26PM 34.1514 -118.0497 56° Northeast 409 471 19,100 2,100 Climbing Los Angeles Center
03:27PM 34.2167 -117.9325 56° Northeast 418 481 21,300 1,860 Climbing Los Angeles Center
03:28PM 34.2853 -117.8119 55° Northeast 428 493 23,000 1,680 Climbing Los Angeles Center
03:29PM 34.3533 -117.6883 56° Northeast 437 503 24,800 1,500 Climbing Los Angeles Center
03:30PM 34.4272 -117.5544 56° Northeast 450 518 26,100 1,260 Climbing Los Angeles Center
03:31PM 34.4989 -117.4239 56° Northeast 466 536 27,500 1,380 Climbing Los Angeles Center
03:32PM 34.5869 -117.2639 56° Northeast 479 551 29,000 1,200 Climbing Los Angeles Center
03:34PM 34.6642 -117.1322 54° Northeast 481 554 30,100 1,200 Climbing Los Angeles Center
03:35PM 34.7544 -117.0111 48° Northeast 486 559 31,500 1,200 Climbing Los Angeles Center
03:36PM 34.8431 -116.8903 48° Northeast 482 555 32,600 1,080 Climbing Los Angeles Center
03:37PM 34.9319 -116.7683 48° Northeast 483 556 33,800 1,140 Climbing Los Angeles Center
03:38PM 35.0372 -116.6214 49° Northeast 482 555 35,000 540 Climbing Los Angeles Center
03:39PM 35.1267 -116.5003 48° Northeast 483 556 35,000  Level Los Angeles Center
03:40PM 35.2139 -116.3778 49° Northeast 480 552 35,000  Level Los Angeles Center
03:41PM 35.3022 -116.2553 49° Northeast 481 554 35,000  Level Los Angeles Center
03:42PM 35.3894 -116.1331 49° Northeast 479 551 35,000  Level Los Angeles Center
03:43PM 35.4958 -115.9864 48° Northeast 480 552 35,000  Level Los Angeles Center
03:44PM 35.5833 -115.8644 49° Northeast 478 550 35,000  Level Los Angeles Center
03:45PM 35.6608 -115.7561 49° Northeast 475 547 35,000  Level Los Angeles Center
03:46PM 35.7633 -115.6106 49° Northeast 471 542 35,000  Level Los Angeles Center
03:47PM 35.8489 -115.4889 49° Northeast 471 542 35,000  Level Los Angeles Center
03:48PM 35.9300 -115.3608 52° Northeast 476 548 35,000  Level Los Angeles Center
03:49PM 35.9717 -115.2072 71° East 478 550 35,000  Level Los Angeles Center
03:50PM 36.0103 -115.0161 76° East 482 555 35,000  Level Los Angeles Center
03:51PM 36.0433 -114.8567 76° East 483 556 35,000  Level Los Angeles Center
03:52PM 36.0761 -114.6981 76° East 480 552 35,000  Level Los Angeles Center
03:53PM 36.1089 -114.5369 76° East 484 557 35,000  Level Los Angeles Center
03:54PM 36.1419 -114.3767 76° East 483 556 35,000  Level Los Angeles Center
03:55PM 36.1817 -114.1814 76° East 488 562 35,000  Level Los Angeles Center
03:56PM 36.2133 -114.0178 76° East 490 564 35,000  Level Los Angeles Center
03:57PM 36.2469 -113.8533 76° East 493 567 35,000  Level Los Angeles Center
03:58PM 36.2792 -113.6872 76° East 496 571 35,000  Level Los Angeles Center
03:59PM 36.3117 -113.5200 76° East 498 573 35,000  Level Los Angeles Center
04:00PM 36.3442 -113.3544 76° East 497 572 35,000  Level Los Angeles Center
04:01PM 36.3797 -113.1731 76° East 499 574 35,000  Level Los Angeles Center
04:03PM 36.4108 -113.0044 77° East 502 578 35,000  Level Los Angeles Center
04:04PM 36.4497 -112.8031 76° East 503 579 35,000  Level Los Angeles Center
04:05PM 36.4808 -112.6347 77° East 504 580 35,000  Level Los Angeles Center
04:06PM 36.5119 -112.4653 77° East 505 581 35,000  Level Los Angeles Center
04:07PM 36.5436 -112.2972 77° East 503 579 35,000  Level Los Angeles Center
04:08PM 36.5736 -112.1297 77° East 501 577 35,000  Level Los Angeles Center
04:09PM 36.6108 -111.9281 77° East 500 575 35,000  Level Los Angeles Center
04:09PM 36.6300 -111.8275 77° East 502 578 35,000  Level Denver Center
04:10PM 36.6594 -111.6592 78° East 501 577 35,000  Level Denver Center
04:11PM 36.6892 -111.4900 78° East 503 579 35,000  Level Denver Center
04:13PM 36.7203 -111.3192 77° East 506 582 35,000  Level Denver Center
04:14PM 36.7567 -111.1131 78° East 509 586 35,000  Level Denver Center
04:15PM 36.7867 -110.9408 78° East 511 588 35,000  Level Denver Center
04:16PM 36.8186 -110.7361 79° East 510 587 35,000  Level Denver Center
04:17PM 36.8472 -110.5656 78° East 505 581 35,000  Level Denver Center
04:18PM 36.8758 -110.3931 78° East 510 587 35,000  Level Denver Center
04:19PM 36.9050 -110.2183 78° East 514 592 35,000  Level Denver Center
04:20PM 36.9353 -110.0294 79° East 510 587 35,000  Level Denver Center
04:21PM 36.9669 -109.8347 78° East 510 587 35,000  Level Denver Center
04:22PM 36.9944 -109.6658 78° East 515 593 35,000  Level Denver Center
04:23PM 37.0211 -109.4961 79° East 517 595 35,000  Level Denver Center
04:24PM 37.0525 -109.2961 79° East 523 602 35,000  Level Denver Center
04:25PM 37.0783 -109.1258 79° East 520 598 35,000  Level Denver Center
04:26PM 37.1097 -108.9247 79° East 524 603 35,000  Level Denver Center
04:27PM 37.1356 -108.7517 79° East 526 605 35,000  Level Denver Center
04:28PM 37.1617 -108.5775 79° East 530 610 35,000  Level Denver Center
04:29PM 37.1914 -108.3750 80° East 528 608 35,000  Level Denver Center
04:30PM 37.2167 -108.2028 80° East 526 605 35,000  Level Denver Center
04:31PM 37.2461 -108.0006 80° East 528 608 35,000  Level Denver Center
04:32PM 37.2722 -107.8264 79° East 528 608 35,000  Level Denver Center
04:33PM 37.2953 -107.6522 81° East 527 606 35,000  Level Denver Center
04:34PM 37.3244 -107.4514 80° East 524 603 35,000  Level Denver Center
04:35PM 37.3483 -107.2767 80° East 527 606 35,000  Level Denver Center
04:36PM 37.3764 -107.0739 80° East 526 605 35,000  Level Denver Center
04:37PM 37.3994 -106.8986 81° East 530 610 35,000  Level Denver Center
04:38PM 37.4272 -106.6922 80° East 535 616 35,000  Level Denver Center
04:39PM 37.4511 -106.5158 80° East 535 616 35,000  Level Denver Center
04:40PM 37.4736 -106.3392 81° East 534 615 35,000  Level Denver Center
04:41PM 37.5000 -106.1336 81° East 532 612 35,000  Level Denver Center
04:43PM 37.5217 -105.9575 81° East 532 612 35,000  Level Denver Center
04:44PM 37.5478 -105.7517 81° East 533 613 35,000  Level Denver Center
04:45PM 37.5708 -105.5608 81° East 534 615 35,000  Level Denver Center
04:46PM 37.5931 -105.3842 81° East 533 613 35,000  Level Denver Center
04:47PM 37.6139 -105.2092 81° East 530 610 35,000  Level Denver Center
04:48PM 37.6386 -105.0039 81° East 530 610 35,000  Level Denver Center
04:49PM 37.6586 -104.8258 82° East 535 616 35,000  Level Denver Center
04:50PM 37.6831 -104.6178 81° East 534 615 35,000  Level Denver Center
04:51PM 37.7033 -104.4381 82° East 539 620 35,000  Level Denver Center
04:52PM 37.7233 -104.2581 82° East 537 618 35,000  Level Denver Center
04:53PM 37.7469 -104.0464 82° East 538 619 35,000  Level Denver Center
04:54PM 37.7669 -103.8625 82° East 543 625 35,000  Level Denver Center
04:55PM 37.7872 -103.6786 82° East 547 629 35,000  Level Denver Center
04:56PM 37.8089 -103.4669 83° East 542 624 35,000  Level Denver Center
04:57PM 37.8281 -103.2853 82° East 543 625 35,000  Level Denver Center
04:58PM 37.8458 -103.1036 83° East 544 626 35,000  Level Denver Center
04:59PM 37.8672 -102.8911 83° East 544 626 35,000  Level Denver Center
05:00PM 37.8853 -102.7094 83° East 544 626 35,000  Level Denver Center
05:01PM 37.8997 -102.5578 83° East 544 626 35,000  Level Denver Center
05:02PM 37.9250 -102.3117 83° East 551 634 35,000  Level Denver Center
05:03PM 37.9467 -102.0700 83° East 546 628 35,000  Level Denver Center
05:04PM 37.9636 -101.8875 83° East 545 627 35,000  Level Denver Center
05:05PM 37.9817 -101.6753 84° East 542 624 35,000  Level Denver Center
05:06PM 37.9950 -101.5244 84° East 541 623 35,000  Level Denver Center
05:07PM 38.0131 -101.3106 84° East 543 625 35,000  Level Denver Center
05:08PM 38.0322 -101.0969 83° East 544 626 35,000  Level Denver Center
05:09PM 38.0469 -100.9106 84° East 549 632 35,000  Level Denver Center
05:10PM 38.0611 -100.7253 84° East 547 629 35,000  Level Denver Center
05:11PM 38.0744 -100.5708 84° East 548 631 35,100 780 Climbing Denver Center
05:13PM 38.0956 -100.2900 84° East 551 634 36,800 780 Climbing Kansas City Center
05:14PM 38.1106 -100.0772 85° East 544 626 37,000 60 Climbing Kansas City Center
05:15PM 38.1244 -99.8939 84° East 544 626 37,000  Level Kansas City Center
05:16PM 38.1392 -99.6806 85° East 543 625 37,000  Level Kansas City Center
05:17PM 38.1517 -99.4969 85° East 543 625 37,000  Level Kansas City Center
05:18PM 38.1656 -99.2892 85° East 541 623 37,000  Level Kansas City Center
05:19PM 38.1803 -99.0983 84° East 542 624 37,000  Level Kansas City Center
05:20PM 38.1925 -98.9078 85° East 540 621 37,000  Level Kansas City Center
05:21PM 38.2058 -98.7169 85° East 542 624 37,000  Level Kansas City Center
05:22PM 38.2183 -98.5267 85° East 538 619 37,000  Level Kansas City Center
05:23PM 38.2300 -98.3369 85° East 536 617 37,000  Level Kansas City Center
05:24PM 38.2414 -98.1467 86° East 537 618 37,000  Level Kansas City Center
05:25PM 38.2522 -97.9539 86° East 538 619 37,000  Level Kansas City Center
05:26PM 38.2647 -97.7228 86° East 538 619 37,000  Level Kansas City Center
05:27PM 38.2756 -97.5317 86° East 536 617 37,000  Level Kansas City Center
05:28PM 38.2861 -97.3431 86° East 532 612 37,000  Level Kansas City Center
05:29PM 38.2956 -97.1486 86° East 534 615 37,000  Level Kansas City Center
05:30PM 38.3044 -96.9653 86° East 534 615 37,000  Level Kansas City Center
05:31PM 38.3136 -96.7756 86° East 536 617 37,000  Level Kansas City Center
05:32PM 38.3219 -96.5858 87° East 537 618 37,000  Level Kansas City Center
05:33PM 38.3308 -96.3750 87° East 531 611 37,000  Level Kansas City Center
05:34PM 38.3406 -96.1633 87° East 537 618 37,000  Level Kansas City Center
05:35PM 38.3472 -95.9806 87° East 541 623 37,000  Level Kansas City Center
05:36PM 38.3542 -95.7981 87° East 541 623 37,000  Level Kansas City Center
05:37PM 38.3625 -95.5853 87° East 541 623 37,000  Level Kansas City Center
05:38PM 38.3689 -95.4014 87° East 543 625 37,000  Level Kansas City Center
05:39PM 38.3769 -95.1889 87° East 541 623 37,000  Level Kansas City Center
05:41PM 38.3825 -95.0061 88° East 543 625 37,000  Level Kansas City Center
05:42PM 38.3894 -94.7922 88° East 543 625 37,000  Level Kansas City Center
05:43PM 38.3942 -94.6103 88° East 541 623 37,000  Level Kansas City Center
05:44PM 38.4006 -94.3969 88° East 542 624 37,000  Level Kansas City Center
05:45PM 38.4044 -94.2114 88° East 546 628 37,000  Level Kansas City Center
05:46PM 38.4078 -94.0169 89° East 542 624 37,000  Level Kansas City Center
05:47PM 38.4125 -93.8253 88° East 539 620 37,000  Level Kansas City Center
05:48PM 38.4169 -93.6356 88° East 537 618 37,000  Level Kansas City Center
05:49PM 38.4211 -93.4075 89° East 535 616 37,000  Level Kansas City Center
05:50PM 38.4247 -93.2167 89° East 535 616 37,000  Level Kansas City Center
05:51PM 38.4275 -93.0264 89° East 534 615 37,000  Level Kansas City Center
05:52PM 38.4308 -92.8378 89° East 531 611 37,000  Level Kansas City Center
05:53PM 38.4333 -92.6442 89° East 538 619 37,000  Level Kansas City Center
05:54PM 38.4356 -92.4550 89° East 532 612 37,000  Level Kansas City Center
05:55PM 38.4361 -92.2642 90° East 531 611 37,000  Level Kansas City Center
05:56PM 38.4369 -92.0739 90° East 533 613 37,000  Level Kansas City Center
05:57PM 38.4381 -91.8842 90° East 531 611 37,000  Level Kansas City Center
05:58PM 38.4392 -91.6592 90° East 527 606 37,000  Level Kansas City Center
05:59PM 38.4389 -91.4750 90° East 520 598 37,000  Level Kansas City Center
06:00PM 38.4381 -91.3161 90° East 515 593 37,000  Level Kansas City Center
06:01PM 38.4392 -91.1372 89° East 510 587 37,000  Level Kansas City Center
06:02PM 38.4383 -90.9225 90° East 507 583 37,000  Level Kansas City Center
06:03PM 38.4372 -90.7450 90° East 506 582 37,000  Level Kansas City Center
06:04PM 38.4361 -90.5731 90° East 504 580 37,000  Level Kansas City Center
06:05PM 38.4342 -90.3939 91° East 502 578 37,000  Level Kansas City Center
06:06PM 38.4344 -90.1786 90° East 509 586 37,000  Level Kansas City Center
06:07PM 38.4322 -90.0047 91° East 504 580 37,000  Level Kansas City Center
06:08PM 38.4292 -89.8281 91° East 502 578 37,000  Level Kansas City Center
06:09PM 38.4272 -89.6369 91° East 504 580 37,000  Level Kansas City Center
06:10PM 38.4244 -89.4475 91° East 499 574 37,000  Level Kansas City Center
06:11PM 38.4225 -89.2711 91° East 499 574 37,000 -360 Level Kansas City Center
06:13PM 38.4158 -89.0808 93° East 500 575 36,300 -1,020 Descending Kansas City Center
06:14PM 38.4058 -88.9075 94° East 495 570 34,900 -1,680 Descending Kansas City Center
06:15PM 38.3936 -88.7358 95° East 486 559 33,000 -1,860 Descending Kansas City Center
06:16PM 38.3844 -88.5533 94° East 494 568 31,100 -960 Descending Kansas City Center
06:17PM 38.3744 -88.3794 94° East 492 566 31,000 -60 Descending Kansas City Center
06:18PM 38.3894 -88.2078 84° East 485 558 31,000  Level Kansas City Center
06:19PM 38.4064 -88.0375 83° East 483 556 31,000  Level Kansas City Center
06:20PM 38.4208 -87.8678 84° East 480 552 31,000  Level Kansas City Center
06:20PM 38.4256 -87.8017 85° East 478 550 31,000  Level Indianapolis Center
06:21PM 38.4408 -87.6325 83° East 478 550 31,000 -300 Level Indianapolis Center
06:22PM 38.4567 -87.4294 84° East 477 549 30,500 -780 Descending Indianapolis Center
06:23PM 38.4703 -87.2581 84° East 478 550 29,500 -1,020 Descending Indianapolis Center
06:24PM 38.4844 -87.0847 84° East 480 552 28,500 -1,020 Descending Indianapolis Center
06:25PM 38.4975 -86.9131 84° East 476 548 27,400 -1,560 Descending Indianapolis Center
06:26PM 38.5139 -86.7461 83° East 471 542 25,300 -1,500 Descending Indianapolis Center
06:27PM 38.5353 -86.5811 81° East 468 539 24,400 -960 Descending Indianapolis Center
06:28PM 38.5553 -86.4181 81° East 463 533 23,400 -1,020 Descending Indianapolis Center
06:29PM 38.5758 -86.2553 81° East 463 533 22,400 -1,020 Descending Indianapolis Center
06:30PM 38.5947 -86.0981 81° East 449 517 21,300 -1,440 Descending Indianapolis Center
06:31PM 38.6122 -85.9436 82° East 439 505 19,500 -2,280 Descending Indianapolis Center
06:33PM 38.6350 -85.7697 80° East 414 476 16,600 -2,760 Descending Indianapolis Center
06:34PM 38.6511 -85.6264 82° East 408 470 13,900 -2,640 Descending Indianapolis Center
06:35PM 38.6675 -85.4872 81° East 395 455 11,200 -1,440 Descending Indianapolis Center
06:36PM 38.7111 -85.3639 66° East 382 440 11,000 -120 Descending Indianapolis Center
06:37PM 38.7631 -85.2467 60° Northeast 379 436 11,000  Level Indianapolis Center
06:38PM 38.8136 -85.1286 61° Northeast 377 434 11,000 -120 Level Indianapolis Center
06:39PM 38.8742 -84.9878 61° Northeast 374 430 10,800 -420 Descending Indianapolis Center
06:40PM 38.9333 -84.8667 58° Northeast 298 343 10,100 -840 Descending Cincinnati TRACON
06:41PM 38.9833 -84.7833 52° Northeast 283 326 9,000 -960 Descending Cincinnati TRACON
06:42PM 39.0500 -84.7833 360° North 244 281 8,100 -1,440 Descending Cincinnati TRACON
06:43PM 39.1333 -84.7833 360° North 232 267 6,000 -1,920 Descending Cincinnati TRACON
06:44PM 39.1833 -84.7833 360° North 234 269 4,300 -1,320 Descending Cincinnati TRACON
06:45PM 39.2000 -84.7167 72° East 186 214 3,500 -960 Descending Cincinnati TRACON
06:46PM 39.1833 -84.6667 113° Southeast 171 197 2,400 -1,140 Descending Cincinnati TRACON